createdAt,value
2023-03-03T00:10:33.050Z,99235.31
2023-03-03T00:15:36.895Z,99231.53
2023-03-03T00:20:40.450Z,99249.84
2023-03-03T00:25:47.324Z,99203.38
2023-03-03T00:30:50.610Z,99241.38
2023-03-03T00:35:53.424Z,99226.97
2023-03-03T00:40:56.145Z,99238.09
2023-03-03T00:45:59.190Z,99243.81
2023-03-03T00:51:03.307Z,99230.91
2023-03-03T00:56:06.250Z,99244.56
2023-03-03T01:01:09.255Z,99232.66
2023-03-03T01:06:24.450Z,99242.28
2023-03-03T01:11:29.021Z,99219.84
2023-03-03T01:16:31.738Z,99224.97
2023-03-03T01:21:34.787Z,99243.28
2023-03-03T01:26:37.587Z,99227.38
2023-03-03T01:31:41.123Z,99223.00
2023-03-03T01:36:43.958Z,99211.88
2023-03-03T01:41:46.644Z,99225.88
2023-03-03T01:47:06.147Z,99241.09
2023-03-03T01:52:36.334Z,99239.66
2023-03-03T01:57:42.996Z,99241.41
2023-03-03T02:02:49.436Z,99232.63
2023-03-03T02:07:52.267Z,99240.69
2023-03-03T02:12:56.875Z,99239.69
2023-03-03T02:18:02.762Z,99243.59
2023-03-03T02:23:21.002Z,99241.22
2023-03-03T02:28:30.240Z,99248.53
2023-03-03T02:33:34.347Z,99257.34
2023-03-03T02:38:55.769Z,99263.63
2023-03-03T02:44:06.193Z,99248.22
2023-03-03T02:49:10.848Z,99248.09
2023-03-03T02:54:18.084Z,99247.63
2023-03-03T02:59:21.387Z,99220.69
2023-03-03T03:04:27.357Z,99241.81
2023-03-03T03:09:30.891Z,99246.44
2023-03-03T03:14:34.833Z,99249.19
2023-03-03T03:19:40.199Z,99240.41
2023-03-03T03:24:43.278Z,99250.38
2023-03-03T03:29:46.326Z,99248.81
2023-03-03T03:34:49.154Z,99247.59
2023-03-03T03:39:52.279Z,99247.09
2023-03-03T03:44:55.880Z,99247.59
2023-03-03T03:49:58.938Z,99222.84
2023-03-03T03:55:02.079Z,99255.84
2023-03-03T04:00:06.880Z,99259.53
2023-03-03T04:05:16.945Z,99262.78
2023-03-03T04:10:19.859Z,99261.66
2023-03-03T04:15:23.537Z,99265.19
2023-03-03T04:20:27.195Z,99266.03
2023-03-03T04:25:31.483Z,99254.72
2023-03-03T04:30:35.119Z,99254.47
2023-03-03T04:35:38.240Z,99252.47
2023-03-03T04:40:42.521Z,99253.88
2023-03-03T04:45:47.158Z,99263.97
2023-03-03T04:50:50.487Z,99255.31
2023-03-03T04:55:54.185Z,99234.72
2023-03-03T05:00:59.068Z,99249.97
2023-03-03T05:06:04.839Z,99251.31
2023-03-03T05:11:07.800Z,99245.34
2023-03-03T05:16:11.122Z,99256.78
2023-03-03T05:21:13.937Z,99260.97
2023-03-03T05:26:17.565Z,99282.88
2023-03-03T05:31:20.378Z,99271.88
2023-03-03T05:36:23.157Z,99284.94
2023-03-03T05:41:26.328Z,99283.19
2023-03-03T05:46:29.037Z,99242.38
2023-03-03T05:51:31.842Z,99283.56
2023-03-03T05:56:34.663Z,99277.38
2023-03-03T06:01:37.373Z,99265.66
2023-03-03T06:06:40.207Z,99279.88
2023-03-03T06:11:43.002Z,99286.59
2023-03-03T06:16:45.798Z,99286.28
2023-03-03T06:21:48.509Z,99283.44
2023-03-03T06:26:55.272Z,99269.25
2023-03-03T06:31:59.486Z,99269.16
2023-03-03T06:37:02.264Z,99267.66
2023-03-03T06:42:05.067Z,99276.28
2023-03-03T06:47:07.881Z,99255.84
2023-03-03T06:52:14.116Z,99272.94
2023-03-03T06:57:26.716Z,99233.88
2023-03-03T07:02:29.499Z,99261.13
2023-03-03T07:07:32.317Z,99262.25
2023-03-03T07:12:36.171Z,99252.88
2023-03-03T07:17:46.332Z,99239.63
2023-03-03T07:22:49.415Z,99236.97
2023-03-03T07:27:53.799Z,99229.16
2023-03-03T07:32:59.118Z,99227.19
2023-03-03T07:38:01.929Z,99222.50
2023-03-03T07:43:30.536Z,99227.75
2023-03-03T07:48:36.908Z,99188.25
2023-03-03T07:53:39.921Z,99194.41
2023-03-03T07:58:42.721Z,99201.78
2023-03-03T08:03:47.284Z,99196.22
2023-03-03T08:08:50.029Z,99181.47
2023-03-03T08:13:52.698Z,99188.31
2023-03-03T08:19:03.587Z,99205.16
2023-03-03T08:24:07.007Z,99195.03
2023-03-03T08:29:09.726Z,99187.34
2023-03-03T08:34:12.391Z,99183.94
2023-03-03T08:39:15.093Z,99171.16
2023-03-03T08:44:17.856Z,99179.44
2023-03-03T08:49:20.867Z,99179.75
2023-03-03T08:54:23.542Z,99159.13
2023-03-03T08:59:26.374Z,99148.31
2023-03-03T09:04:29.064Z,99137.41
2023-03-03T09:09:32.087Z,99146.09
2023-03-03T09:14:34.961Z,99152.50
2023-03-03T09:19:37.941Z,99142.03
2023-03-03T09:24:43.000Z,99136.59
2023-03-03T09:29:45.752Z,99136.91
2023-03-03T09:34:48.604Z,99147.81
2023-03-03T09:39:56.034Z,99127.69
2023-03-03T09:45:07.931Z,99118.16
2023-03-03T09:50:16.451Z,99105.53
2023-03-03T09:55:31.473Z,99092.22
2023-03-03T10:00:34.241Z,99091.06
2023-03-03T10:05:49.030Z,99082.50
2023-03-03T10:11:27.614Z,99056.94
2023-03-03T10:16:40.677Z,99070.50
2023-03-03T10:21:55.644Z,99058.69
2023-03-03T10:27:26.223Z,99062.81
2023-03-03T10:32:54.974Z,99044.63
2023-03-03T10:38:22.576Z,99069.44
2023-03-03T10:43:50.195Z,99085.06
2023-03-03T10:49:23.287Z,99091.53
2023-03-03T10:54:32.644Z,99080.91
2023-03-03T11:00:00.126Z,99083.53
2023-03-03T11:05:22.073Z,99076.03
2023-03-03T11:10:51.894Z,99058.53
2023-03-03T11:16:08.057Z,99054.06
2023-03-03T11:21:15.998Z,99056.94
2023-03-03T11:26:29.721Z,99028.47
2023-03-03T11:31:58.282Z,99035.09
2023-03-03T11:37:38.989Z,99020.03
2023-03-03T11:43:06.388Z,99003.72
2023-03-03T11:48:28.752Z,98984.78
2023-03-03T11:53:50.306Z,98966.81
2023-03-03T11:59:14.360Z,98953.72
2023-03-03T12:04:22.206Z,98943.16
2023-03-03T12:10:00.015Z,98947.03
2023-03-03T12:15:11.798Z,98940.81
2023-03-03T12:20:33.825Z,98912.47
2023-03-03T12:25:39.478Z,98922.84
2023-03-03T12:31:13.798Z,98935.44
2023-03-03T12:36:22.855Z,98931.22
2023-03-03T12:41:28.683Z,98937.09
2023-03-03T12:46:43.374Z,98937.69
2023-03-03T12:51:46.033Z,98935.59
2023-03-03T12:57:01.450Z,98924.41
2023-03-03T13:02:30.448Z,98892.47
2023-03-03T13:08:14.553Z,98915.50
2023-03-03T13:13:25.006Z,98909.88
2023-03-03T13:18:40.144Z,98907.22
2023-03-03T13:24:04.203Z,98911.41
2023-03-03T13:29:32.600Z,98908.88
2023-03-03T13:34:54.041Z,98888.88
2023-03-03T13:39:58.578Z,98846.22
2023-03-03T13:45:04.207Z,98861.03
2023-03-03T13:50:32.051Z,98858.38
2023-03-03T13:55:40.870Z,98860.75
2023-03-03T14:01:04.978Z,98847.94
2023-03-03T14:06:20.855Z,98844.50
2023-03-03T14:11:47.554Z,98830.13
2023-03-03T14:16:59.883Z,98828.53
2023-03-03T14:22:07.422Z,98825.09
2023-03-03T14:27:23.982Z,98807.44
2023-03-03T14:32:43.192Z,98813.38
2023-03-03T14:37:48.115Z,98814.88
2023-03-03T14:42:53.784Z,98817.19
2023-03-03T14:47:56.636Z,98813.59
2023-03-03T14:53:19.138Z,98781.69
2023-03-03T14:58:35.481Z,98822.47
2023-03-03T15:03:38.773Z,98823.84
2023-03-03T15:08:43.160Z,98837.13
2023-03-03T15:13:46.125Z,98848.66
2023-03-03T15:19:12.046Z,98867.78
2023-03-03T15:24:47.652Z,98872.53
2023-03-03T15:29:53.439Z,98880.25
2023-03-03T15:35:24.624Z,98890.28
2023-03-03T15:40:49.733Z,98903.03
2023-03-03T15:46:35.012Z,98911.06
2023-03-03T15:52:13.761Z,98912.47
2023-03-03T15:57:53.779Z,98923.78
2023-03-03T16:03:02.931Z,98921.00
2023-03-03T16:08:37.980Z,98931.16
2023-03-03T16:14:04.605Z,98946.41
2023-03-03T16:19:19.522Z,98952.84
2023-03-03T16:24:41.214Z,98968.50
2023-03-03T16:30:24.708Z,98963.53
2023-03-03T16:35:46.281Z,98979.69
2023-03-03T16:40:56.198Z,98986.03
2023-03-03T16:46:04.889Z,98996.69
2023-03-03T16:51:27.616Z,99014.00
2023-03-03T16:56:55.265Z,99029.84
2023-03-03T17:02:29.181Z,99026.28
2023-03-03T17:07:45.507Z,99035.97
2023-03-03T17:13:10.388Z,99047.28
2023-03-03T17:18:19.696Z,99030.06
2023-03-03T17:23:44.537Z,99062.25
2023-03-03T17:28:59.492Z,99093.19
2023-03-03T17:34:26.749Z,99102.09
2023-03-03T17:39:44.715Z,99118.28
2023-03-03T17:45:23.086Z,99133.56
2023-03-03T17:50:34.920Z,99149.66
2023-03-03T17:56:02.777Z,99174.81
2023-03-03T18:01:27.251Z,99191.75
2023-03-03T18:06:34.852Z,99208.22
2023-03-03T18:11:59.452Z,99206.81
2023-03-03T18:17:01.903Z,99247.50
2023-03-03T18:22:12.298Z,99264.22
2023-03-03T18:27:30.021Z,99289.16
2023-03-03T18:32:43.448Z,99288.44
2023-03-03T18:37:47.221Z,99289.84
2023-03-03T18:42:54.225Z,99347.44
2023-03-03T18:48:09.977Z,99360.09
2023-03-03T18:53:17.755Z,99394.69
2023-03-03T18:58:20.392Z,99397.06
2023-03-03T19:03:38.048Z,99423.19
2023-03-03T19:08:56.773Z,99429.19
2023-03-03T19:14:18.010Z,99450.53
2023-03-03T19:19:23.755Z,99454.53
2023-03-03T19:24:31.401Z,99486.59
2023-03-03T19:29:46.505Z,99511.84
2023-03-03T19:35:04.104Z,99526.16
2023-03-03T19:40:37.432Z,99537.66
2023-03-03T19:45:55.464Z,99539.69
2023-03-03T19:51:13.042Z,99564.78
2023-03-03T19:56:35.469Z,99571.53
2023-03-03T20:01:44.330Z,99591.59
2023-03-03T20:06:58.128Z,99594.59
2023-03-03T20:12:32.839Z,99623.19
2023-03-03T20:17:41.406Z,99630.16
2023-03-03T20:23:00.953Z,99644.03
2023-03-03T20:28:32.840Z,99645.28
2023-03-03T20:34:01.493Z,99660.81
2023-03-03T20:39:21.803Z,99609.25
2023-03-03T20:44:46.031Z,99689.81
2023-03-03T20:49:59.150Z,99695.16
2023-03-03T20:55:04.809Z,99719.56
2023-03-03T21:00:11.188Z,99732.41
2023-03-03T21:05:16.612Z,99745.00
2023-03-03T21:10:25.093Z,99759.13
2023-03-03T21:15:31.559Z,99768.28
2023-03-03T21:20:35.546Z,99771.63
2023-03-03T21:25:41.239Z,99787.03
2023-03-03T21:31:07.798Z,99806.69
2023-03-03T21:36:12.535Z,99832.91
2023-03-03T21:41:16.869Z,99823.38
2023-03-03T21:46:25.104Z,99843.00
2023-03-03T21:51:29.169Z,99848.13
2023-03-03T21:56:32.006Z,99803.25
2023-03-03T22:01:37.135Z,99821.28
2023-03-03T22:06:41.179Z,99853.22
2023-03-03T22:11:43.908Z,99850.59
2023-03-03T22:16:46.607Z,99868.13
2023-03-03T22:21:50.579Z,99882.06
2023-03-03T22:26:53.195Z,99892.25
2023-03-03T22:31:56.001Z,99890.75
2023-03-03T22:36:58.776Z,99918.13
2023-03-03T22:42:02.192Z,99924.09
2023-03-03T22:47:05.063Z,99921.59
2023-03-03T22:52:07.800Z,99909.41
2023-03-03T22:57:10.476Z,99929.66
2023-03-03T23:02:13.479Z,99943.22
2023-03-03T23:07:16.323Z,99945.44
2023-03-03T23:12:19.032Z,99966.03
2023-03-03T23:17:21.849Z,99972.81
2023-03-03T23:22:24.546Z,99976.50
2023-03-03T23:27:27.268Z,99985.53
2023-03-03T23:32:30.110Z,99977.50
2023-03-03T23:37:33.110Z,99982.47
2023-03-03T23:42:35.803Z,100000.88
2023-03-03T23:47:38.646Z,100006.53
2023-03-03T23:52:41.623Z,100015.50
2023-03-03T23:57:44.460Z,100037.41
